Time,TemperatureF,DewpointF,PressureIn,WindDirection,WindDirectionDegrees,WindSpeedMPH,WindSpeedGustMPH,Humidity,HourlyPrecipIn,Conditions,Clouds,dailyrainin,SoftwareType,DateUTC
2013-09-16 00:01:00,54.8,54.8,30.08,WNW,295,0.0,0.0,100,0.00,,,0.00,WUHU216DAVISWMX,2013-09-16 04:01:00,
2013-09-16 00:06:00,54.7,54.7,30.08,WNW,295,0.0,0.0,100,0.00,,,0.00,WUHU216DAVISWMX,2013-09-16 04:06:00,
2013-09-16 00:11:00,54.6,54.6,30.08,WNW,295,0.0,0.0,100,0.00,,,0.00,WUHU216DAVISWMX,2013-09-16 04:11:00,
2013-09-16 00:16:00,54.6,54.6,30.08,WNW,295,0.0,0.0,100,0.00,,,0.00,WUHU216DAVISWMX,2013-09-16 04:16:00,
2013-09-16 00:21:00,54.7,54.7,30.08,WNW,295,0.0,0.0,100,0.00,,,0.00,WUHU216DAVISWMX,2013-09-16 04:21:00,
2013-09-16 00:26:00,54.8,54.8,30.08,WNW,295,0.0,0.0,100,0.00,,,0.00,WUHU216DAVISWMX,2013-09-16 04:26:00,
2013-09-16 00:31:00,54.9,54.9,30.08,WNW,295,0.0,0.0,100,0.00,,,0.00,WUHU216DAVISWMX,2013-09-16 04:31:00,
2013-09-16 00:36:00,54.9,54.9,30.08,WNW,295,0.0,0.0,100,0.00,,,0.00,WUHU216DAVISWMX,2013-09-16 04:36:00,
2013-09-16 00:41:00,54.8,54.8,30.08,WNW,295,0.0,0.0,100,0.00,,,0.00,WUHU216DAVISWMX,2013-09-16 04:41:00,
2013-09-16 00:46:00,54.6,54.6,30.09,WNW,295,0.0,0.0,100,0.00,,,0.00,WUHU216DAVISWMX,2013-09-16 04:46:00,
2013-09-16 00:51:00,54.6,54.6,30.09,WNW,295,0.0,0.0,100,0.00,,,0.00,WUHU216DAVISWMX,2013-09-16 04:51:00,
2013-09-16 00:56:00,54.6,54.6,30.08,WNW,295,0.0,0.0,100,0.00,,,0.00,WUHU216DAVISWMX,2013-09-16 04:56:00,
2013-09-16 01:01:00,54.6,54.6,30.08,WNW,295,0.0,0.0,100,0.00,,,0.00,WUHU216DAVISWMX,2013-09-16 05:01:00,
2013-09-16 01:06:00,54.5,54.5,30.08,WNW,295,0.0,0.0,100,0.00,,,0.00,WUHU216DAVISWMX,2013-09-16 05:06:00,
2013-09-16 01:11:00,54.4,54.4,30.08,WNW,295,0.0,0.0,100,0.00,,,0.00,WUHU216DAVISWMX,2013-09-16 05:11:00,
2013-09-16 01:16:00,54.3,54.3,30.07,WNW,295,0.0,0.0,100,0.00,,,0.00,WUHU216DAVISWMX,2013-09-16 05:16:00,
2013-09-16 01:21:00,54.1,54.1,30.07,WNW,295,0.0,0.0,100,0.00,,,0.00,WUHU216DAVISWMX,2013-09-16 05:21:00,
2013-09-16 01:26:00,54.0,54.0,30.07,WNW,295,0.0,0.0,100,0.00,,,0.00,WUHU216DAVISWMX,2013-09-16 05:26:00,
2013-09-16 01:31:00,54.1,54.1,30.07,WNW,295,0.0,0.0,100,0.00,,,0.00,WUHU216DAVISWMX,2013-09-16 05:31:00,
2013-09-16 01:36:00,54.0,54.0,30.07,WNW,295,0.0,0.0,100,0.00,,,0.00,WUHU216DAVISWMX,2013-09-16 05:36:00,
2013-09-16 01:41:00,54.0,54.0,30.07,WNW,295,0.0,0.0,100,0.00,,,0.00,WUHU216DAVISWMX,2013-09-16 05:41:00,
2013-09-16 01:46:00,54.0,54.0,30.07,WNW,295,0.0,0.0,100,0.00,,,0.00,WUHU216DAVISWMX,2013-09-16 05:46:00,
2013-09-16 01:51:00,54.0,54.0,30.06,WNW,295,0.0,0.0,100,0.00,,,0.00,WUHU216DAVISWMX,2013-09-16 05:51:00,
2013-09-16 01:56:00,54.0,54.0,30.06,WNW,295,0.0,0.0,100,0.00,,,0.00,WUHU216DAVISWMX,2013-09-16 05:56:00,
2013-09-16 02:01:00,54.0,54.0,30.06,WNW,295,0.0,0.0,100,0.00,,,0.00,WUHU216DAVISWMX,2013-09-16 06:01:00,
2013-09-16 02:06:00,54.0,54.0,30.06,WNW,295,0.0,0.0,100,0.00,,,0.00,WUHU216DAVISWMX,2013-09-16 06:06:00,
2013-09-16 02:11:00,54.0,54.0,30.06,WNW,295,0.0,0.0,100,0.00,,,0.00,WUHU216DAVISWMX,2013-09-16 06:11:00,
2013-09-16 02:16:00,54.0,54.0,30.06,WNW,295,0.0,0.0,100,0.00,,,0.00,WUHU216DAVISWMX,2013-09-16 06:16:00,
2013-09-16 02:21:00,54.0,54.0,30.05,WNW,295,0.0,0.0,100,0.00,,,0.00,WUHU216DAVISWMX,2013-09-16 06:21:00,
2013-09-16 02:26:00,54.0,54.0,30.06,WNW,295,0.0,0.0,100,0.00,,,0.00,WUHU216DAVISWMX,2013-09-16 06:26:00,
2013-09-16 02:31:00,54.0,54.0,30.06,WNW,295,0.0,0.0,100,0.00,,,0.00,WUHU216DAVISWMX,2013-09-16 06:31:00,
2013-09-16 02:36:00,54.0,54.0,30.06,WNW,295,0.0,0.0,100,0.00,,,0.00,WUHU216DAVISWMX,2013-09-16 06:36:00,
2013-09-16 02:41:00,54.0,54.0,30.06,WNW,295,0.0,0.0,100,0.00,,,0.00,WUHU216DAVISWMX,2013-09-16 06:41:00,
2013-09-16 02:46:00,54.1,54.1,30.06,WNW,295,0.0,0.0,100,0.00,,,0.00,WUHU216DAVISWMX,2013-09-16 06:46:00,
2013-09-16 02:51:00,54.1,54.1,30.06,WNW,295,0.0,0.0,100,0.00,,,0.00,WUHU216DAVISWMX,2013-09-16 06:51:00,
2013-09-16 02:56:00,54.0,54.0,30.06,WNW,295,0.0,0.0,100,0.00,,,0.00,WUHU216DAVISWMX,2013-09-16 06:56:00,
2013-09-16 03:01:00,54.0,54.0,30.05,WNW,295,0.0,0.0,100,0.00,,,0.00,WUHU216DAVISWMX,2013-09-16 07:01:00,
2013-09-16 03:07:00,54.1,54.1,30.06,WNW,295,0.0,0.0,100,0.00,,,0.00,WUHU216DAVISWMX,2013-09-16 07:07:00,
2013-09-16 03:12:00,54.0,54.0,30.06,WNW,295,0.0,0.0,100,0.00,,,0.00,WUHU216DAVISWMX,2013-09-16 07:12:00,
2013-09-16 03:17:00,54.0,54.0,30.06,WNW,295,0.0,0.0,100,0.00,,,0.00,WUHU216DAVISWMX,2013-09-16 07:17:00,
2013-09-16 03:22:00,54.0,54.0,30.05,WNW,295,0.0,0.0,100,0.00,,,0.00,WUHU216DAVISWMX,2013-09-16 07:22:00,
2013-09-16 03:27:00,54.0,54.0,30.05,WNW,295,0.0,0.0,100,0.00,,,0.00,WUHU216DAVISWMX,2013-09-16 07:27:00,
2013-09-16 03:32:00,54.1,54.1,30.06,WNW,295,0.0,0.0,100,0.00,,,0.00,WUHU216DAVISWMX,2013-09-16 07:32:00,
2013-09-16 03:37:00,54.0,54.0,30.06,WNW,295,0.0,0.0,100,0.00,,,0.00,WUHU216DAVISWMX,2013-09-16 07:37:00,
2013-09-16 03:42:00,54.1,54.1,30.06,WNW,296,0.0,0.0,100,0.00,,,0.00,WUHU216DAVISWMX,2013-09-16 07:42:00,
2013-09-16 03:47:00,54.0,54.0,30.06,WNW,295,0.0,0.0,100,0.00,,,0.00,WUHU216DAVISWMX,2013-09-16 07:47:00,
2013-09-16 03:52:00,54.2,54.2,30.06,WNW,295,0.0,0.0,100,0.00,,,0.00,WUHU216DAVISWMX,2013-09-16 07:52:00,
2013-09-16 03:57:00,54.1,54.1,30.05,WNW,296,0.0,0.0,100,0.00,,,0.00,WUHU216DAVISWMX,2013-09-16 07:57:00,
2013-09-16 04:02:00,54.2,54.2,30.06,WNW,295,0.0,0.0,100,0.00,,,0.00,WUHU216DAVISWMX,2013-09-16 08:02:00,
2013-09-16 04:07:00,54.1,54.1,30.06,WNW,295,0.0,0.0,100,0.00,,,0.00,WUHU216DAVISWMX,2013-09-16 08:07:00,
2013-09-16 04:12:00,54.2,54.2,30.05,WNW,295,0.0,0.0,100,0.00,,,0.00,WUHU216DAVISWMX,2013-09-16 08:12:00,
2013-09-16 04:17:00,54.1,54.1,30.05,WNW,295,0.0,0.0,100,0.00,,,0.00,WUHU216DAVISWMX,2013-09-16 08:17:00,
2013-09-16 04:22:00,54.1,54.1,30.04,WNW,295,0.0,0.0,100,0.00,,,0.00,WUHU216DAVISWMX,2013-09-16 08:22:00,
2013-09-16 04:27:00,54.1,54.1,30.04,WNW,295,0.0,0.0,100,0.00,,,0.00,WUHU216DAVISWMX,2013-09-16 08:27:00,
2013-09-16 04:32:00,54.1,54.1,30.04,WNW,295,0.0,0.0,100,0.00,,,0.00,WUHU216DAVISWMX,2013-09-16 08:32:00,
2013-09-16 04:37:00,54.1,54.1,30.05,WNW,295,0.0,0.0,100,0.00,,,0.00,WUHU216DAVISWMX,2013-09-16 08:37:00,
2013-09-16 04:42:00,54.1,54.1,30.05,WNW,295,0.0,0.0,100,0.00,,,0.00,WUHU216DAVISWMX,2013-09-16 08:42:00,
2013-09-16 04:47:00,54.0,54.0,30.05,WNW,295,0.0,0.0,100,0.00,,,0.00,WUHU216DAVISWMX,2013-09-16 08:47:00,
2013-09-16 04:52:00,53.9,53.9,30.05,WNW,295,0.0,0.0,100,0.00,,,0.00,WUHU216DAVISWMX,2013-09-16 08:52:00,
2013-09-16 04:57:00,54.0,54.0,30.05,WNW,295,0.0,0.0,100,0.00,,,0.00,WUHU216DAVISWMX,2013-09-16 08:57:00,
2013-09-16 05:02:00,54.1,54.1,30.05,WNW,295,0.0,0.0,100,0.00,,,0.00,WUHU216DAVISWMX,2013-09-16 09:02:00,
2013-09-16 05:07:00,54.1,54.1,30.05,WNW,295,0.0,0.0,100,0.00,,,0.00,WUHU216DAVISWMX,2013-09-16 09:07:00,
2013-09-16 05:12:00,54.0,54.0,30.06,WNW,295,0.0,0.0,100,0.00,,,0.00,WUHU216DAVISWMX,2013-09-16 09:12:00,
2013-09-16 05:17:00,53.9,53.9,30.06,WNW,295,0.0,0.0,100,0.00,,,0.00,WUHU216DAVISWMX,2013-09-16 09:17:00,
2013-09-16 05:22:00,54.0,54.0,30.06,WNW,295,0.0,0.0,100,0.00,,,0.00,WUHU216DAVISWMX,2013-09-16 09:22:00,
2013-09-16 05:27:00,54.0,54.0,30.06,WNW,295,0.0,0.0,100,0.00,,,0.00,WUHU216DAVISWMX,2013-09-16 09:27:00,
2013-09-16 05:32:00,53.9,53.9,30.06,WNW,295,0.0,0.0,100,0.00,,,0.00,WUHU216DAVISWMX,2013-09-16 09:32:00,
2013-09-16 05:37:00,53.9,53.9,30.06,WNW,295,0.0,0.0,100,0.00,,,0.00,WUHU216DAVISWMX,2013-09-16 09:37:00,
2013-09-16 05:42:00,53.9,53.9,30.07,WNW,295,0.0,0.0,100,0.00,,,0.00,WUHU216DAVISWMX,2013-09-16 09:42:00,
2013-09-16 05:47:00,54.0,54.0,30.07,WNW,295,0.0,0.0,100,0.00,,,0.00,WUHU216DAVISWMX,2013-09-16 09:47:00,
2013-09-16 05:53:00,54.0,54.0,30.07,WNW,295,0.0,0.0,100,0.00,,,0.00,WUHU216DAVISWMX,2013-09-16 09:53:00,
2013-09-16 05:58:00,54.1,54.1,30.07,WNW,295,0.0,0.0,100,0.00,,,0.00,WUHU216DAVISWMX,2013-09-16 09:58:00,
2013-09-16 06:03:00,54.1,54.1,30.07,WNW,295,0.0,0.0,100,0.00,,,0.00,WUHU216DAVISWMX,2013-09-16 10:03:00,
2013-09-16 06:08:00,54.2,54.2,30.07,WNW,295,0.0,0.0,100,0.00,,,0.00,WUHU216DAVISWMX,2013-09-16 10:08:00,
2013-09-16 06:13:00,54.2,54.2,30.05,WNW,295,0.0,0.0,100,0.00,,,0.00,WUHU216DAVISWMX,2013-09-16 10:13:00,
2013-09-16 06:18:00,54.1,54.1,30.06,WNW,295,0.0,0.0,100,0.00,,,0.00,WUHU216DAVISWMX,2013-09-16 10:18:00,
2013-09-16 06:23:00,54.1,54.1,30.06,WNW,295,0.0,0.0,100,0.00,,,0.00,WUHU216DAVISWMX,2013-09-16 10:23:00,
2013-09-16 06:28:00,54.1,54.1,30.07,WNW,295,0.0,0.0,100,0.00,,,0.00,WUHU216DAVISWMX,2013-09-16 10:28:00,
2013-09-16 06:33:00,54.2,54.2,30.06,WNW,295,0.0,0.0,100,0.00,,,0.00,WUHU216DAVISWMX,2013-09-16 10:33:00,
2013-09-16 06:38:00,54.2,54.2,30.07,WNW,295,0.0,0.0,100,0.00,,,0.00,WUHU216DAVISWMX,2013-09-16 10:38:00,
2013-09-16 06:43:00,54.2,54.2,30.07,WNW,295,0.0,0.0,100,0.00,,,0.00,WUHU216DAVISWMX,2013-09-16 10:43:00,
2013-09-16 06:48:00,54.2,54.2,30.07,WNW,295,0.0,0.0,100,0.00,,,0.00,WUHU216DAVISWMX,2013-09-16 10:48:00,
2013-09-16 06:53:00,54.2,54.2,30.07,WNW,295,0.0,0.0,100,0.00,,,0.00,WUHU216DAVISWMX,2013-09-16 10:53:00,
2013-09-16 06:58:00,54.3,54.3,30.07,WNW,295,0.0,0.0,100,0.00,,,0.00,WUHU216DAVISWMX,2013-09-16 10:58:00,
2013-09-16 07:03:00,54.3,54.3,30.08,WNW,295,0.0,0.0,100,0.00,,,0.00,WUHU216DAVISWMX,2013-09-16 11:03:00,
2013-09-16 07:08:00,54.4,54.4,30.08,WNW,295,0.0,0.0,100,0.00,,,0.00,WUHU216DAVISWMX,2013-09-16 11:08:00,
2013-09-16 07:13:00,54.5,54.5,30.09,WNW,295,0.0,0.0,100,0.00,,,0.00,WUHU216DAVISWMX,2013-09-16 11:13:00,
2013-09-16 07:18:00,54.5,54.5,30.09,WNW,295,0.0,0.0,100,0.00,,,0.00,WUHU216DAVISWMX,2013-09-16 11:18:00,
2013-09-16 07:23:00,54.5,54.5,30.09,WNW,295,0.0,0.0,100,0.00,,,0.00,WUHU216DAVISWMX,2013-09-16 11:23:00,
2013-09-16 07:28:00,54.5,54.5,30.09,WNW,295,0.0,0.0,100,0.00,,,0.00,WUHU216DAVISWMX,2013-09-16 11:28:00,
2013-09-16 07:33:00,54.6,54.6,30.09,WNW,295,0.0,0.0,100,0.00,,,0.00,WUHU216DAVISWMX,2013-09-16 11:33:00,
2013-09-16 07:38:00,54.7,54.7,30.09,WNW,295,0.0,0.0,100,0.00,,,0.00,WUHU216DAVISWMX,2013-09-16 11:38:00,
2013-09-16 07:43:00,54.7,54.7,30.09,WNW,295,0.0,0.0,100,0.00,,,0.00,WUHU216DAVISWMX,2013-09-16 11:43:00,
2013-09-16 07:48:00,54.7,54.7,30.09,WNW,295,0.0,0.0,100,0.00,,,0.00,WUHU216DAVISWMX,2013-09-16 11:48:00,
2013-09-16 07:53:00,54.8,54.8,30.09,WNW,295,0.0,0.0,100,0.00,,,0.00,WUHU216DAVISWMX,2013-09-16 11:53:00,
2013-09-16 07:58:00,54.8,54.8,30.09,WNW,295,0.0,0.0,100,0.00,,,0.00,WUHU216DAVISWMX,2013-09-16 11:58:00,
2013-09-16 08:03:00,54.8,54.8,30.09,WNW,295,0.0,0.0,100,0.00,,,0.00,WUHU216DAVISWMX,2013-09-16 12:03:00,
2013-09-16 08:08:00,54.9,54.9,30.09,WNW,295,0.0,0.0,100,0.00,,,0.00,WUHU216DAVISWMX,2013-09-16 12:08:00,
2013-09-16 08:13:00,55.0,55.0,30.09,WNW,295,0.0,0.0,100,0.00,,,0.00,WUHU216DAVISWMX,2013-09-16 12:13:00,
2013-09-16 08:18:00,55.1,55.1,30.09,WNW,295,0.0,0.0,100,0.00,,,0.00,WUHU216DAVISWMX,2013-09-16 12:18:00,
2013-09-16 08:23:00,55.2,55.2,30.09,WNW,295,0.0,0.0,100,0.00,,,0.00,WUHU216DAVISWMX,2013-09-16 12:23:00,
2013-09-16 08:28:00,55.4,55.4,30.09,WNW,295,0.0,0.0,100,0.00,,,0.00,WUHU216DAVISWMX,2013-09-16 12:28:00,
2013-09-16 08:33:00,55.5,55.5,30.10,WNW,295,0.0,0.0,100,0.00,,,0.00,WUHU216DAVISWMX,2013-09-16 12:33:00,
2013-09-16 08:38:00,55.6,55.6,30.10,WNW,295,0.0,0.0,100,0.00,,,0.00,WUHU216DAVISWMX,2013-09-16 12:38:00,
2013-09-16 08:43:00,55.7,55.7,30.10,WNW,295,0.0,0.0,100,0.00,,,0.00,WUHU216DAVISWMX,2013-09-16 12:43:00,
2013-09-16 08:48:00,55.9,55.9,30.09,WNW,295,0.0,0.0,100,0.01,,,0.01,WUHU216DAVISWMX,2013-09-16 12:48:00,
2013-09-16 08:53:00,56.0,56.0,30.09,WNW,295,0.0,0.0,100,0.01,,,0.01,WUHU216DAVISWMX,2013-09-16 12:53:00,
2013-09-16 08:58:00,56.0,56.0,30.09,WNW,295,0.0,0.0,100,0.01,,,0.01,WUHU216DAVISWMX,2013-09-16 12:58:00,
2013-09-16 09:03:00,56.1,56.1,30.09,WNW,295,0.0,0.0,100,0.01,,,0.01,WUHU216DAVISWMX,2013-09-16 13:03:00,
2013-09-16 09:08:00,56.0,56.0,30.10,WNW,295,0.0,0.0,100,0.01,,,0.01,WUHU216DAVISWMX,2013-09-16 13:08:00,
2013-09-16 09:13:00,56.2,56.2,30.10,WNW,295,0.0,0.0,100,0.01,,,0.01,WUHU216DAVISWMX,2013-09-16 13:13:00,
2013-09-16 09:18:00,56.3,56.3,30.09,WNW,295,0.0,0.0,100,0.01,,,0.01,WUHU216DAVISWMX,2013-09-16 13:18:00,
2013-09-16 09:24:00,56.2,56.2,30.09,WNW,295,0.0,0.0,100,0.01,,,0.01,WUHU216DAVISWMX,2013-09-16 13:24:00,
2013-09-16 09:29:00,56.3,56.3,30.09,WNW,295,0.0,0.0,100,0.01,,,0.01,WUHU216DAVISWMX,2013-09-16 13:29:00,
2013-09-16 09:34:00,56.3,56.3,30.09,WNW,295,0.0,0.0,100,0.01,,,0.01,WUHU216DAVISWMX,2013-09-16 13:34:00,
2013-09-16 09:39:00,56.2,56.2,30.08,WNW,295,0.0,0.0,100,0.01,,,0.01,WUHU216DAVISWMX,2013-09-16 13:39:00,
2013-09-16 09:44:00,56.3,56.3,30.08,WNW,295,0.0,0.0,100,0.01,,,0.01,WUHU216DAVISWMX,2013-09-16 13:44:00,
2013-09-16 09:49:00,56.5,56.5,30.08,WNW,295,0.0,0.0,100,0.00,,,0.01,WUHU216DAVISWMX,2013-09-16 13:49:00,
2013-09-16 09:54:00,56.6,56.6,30.08,WNW,295,0.0,0.0,100,0.00,,,0.01,WUHU216DAVISWMX,2013-09-16 13:54:00,
2013-09-16 09:59:00,56.7,56.7,30.08,WNW,295,0.0,0.0,100,0.00,,,0.01,WUHU216DAVISWMX,2013-09-16 13:59:00,
2013-09-16 10:04:00,56.9,56.9,30.09,WNW,295,0.0,0.0,100,0.00,,,0.01,WUHU216DAVISWMX,2013-09-16 14:04:00,
2013-09-16 10:09:00,57.1,57.1,30.08,WNW,295,0.0,0.0,100,0.00,,,0.01,WUHU216DAVISWMX,2013-09-16 14:09:00,
2013-09-16 10:14:00,57.2,57.2,30.09,WNW,295,0.0,0.0,100,0.00,,,0.01,WUHU216DAVISWMX,2013-09-16 14:14:00,
2013-09-16 10:19:00,57.4,57.4,30.09,WNW,295,0.0,0.0,100,0.00,,,0.01,WUHU216DAVISWMX,2013-09-16 14:19:00,
2013-09-16 10:24:00,57.7,57.7,30.09,WNW,295,0.0,0.0,100,0.00,,,0.01,WUHU216DAVISWMX,2013-09-16 14:24:00,
2013-09-16 10:29:00,57.6,57.6,30.08,WNW,295,0.0,0.0,100,0.00,,,0.01,WUHU216DAVISWMX,2013-09-16 14:29:00,
2013-09-16 10:34:00,57.7,57.7,30.08,WNW,295,0.0,0.0,100,0.00,,,0.01,WUHU216DAVISWMX,2013-09-16 14:34:00,
2013-09-16 10:39:00,57.8,57.8,30.09,WNW,295,0.0,0.0,100,0.00,,,0.01,WUHU216DAVISWMX,2013-09-16 14:39:00,
2013-09-16 10:44:00,57.8,57.8,30.09,WNW,295,0.0,0.0,100,0.00,,,0.01,WUHU216DAVISWMX,2013-09-16 14:44:00,
2013-09-16 10:49:00,57.8,57.8,30.09,WNW,295,0.0,0.0,100,0.00,,,0.01,WUHU216DAVISWMX,2013-09-16 14:49:00,
2013-09-16 10:54:00,57.8,57.8,30.09,WNW,295,0.0,0.0,100,0.00,,,0.01,WUHU216DAVISWMX,2013-09-16 14:54:00,
2013-09-16 10:59:00,58.1,58.1,30.08,WNW,295,0.0,0.0,100,0.00,,,0.01,WUHU216DAVISWMX,2013-09-16 14:59:00,
2013-09-16 11:04:00,58.2,58.2,30.09,WNW,295,0.0,0.0,100,0.00,,,0.01,WUHU216DAVISWMX,2013-09-16 15:04:00,
2013-09-16 11:09:00,58.3,58.3,30.09,WNW,295,0.0,0.0,100,0.00,,,0.01,WUHU216DAVISWMX,2013-09-16 15:09:00,
2013-09-16 11:14:00,58.5,58.5,30.09,WNW,295,0.0,0.0,100,0.00,,,0.01,WUHU216DAVISWMX,2013-09-16 15:14:00,
2013-09-16 11:19:00,58.8,58.8,30.08,WNW,295,0.0,0.0,100,0.00,,,0.01,WUHU216DAVISWMX,2013-09-16 15:19:00,
2013-09-16 11:24:00,59.0,59.0,30.08,WNW,295,0.0,0.0,100,0.00,,,0.01,WUHU216DAVISWMX,2013-09-16 15:24:00,
2013-09-16 11:29:00,59.0,59.0,30.08,WNW,295,0.0,0.0,100,0.00,,,0.01,WUHU216DAVISWMX,2013-09-16 15:29:00,
2013-09-16 11:34:00,59.3,59.3,30.08,South,182,0.0,0.0,100,0.00,,,0.01,WUHU216DAVISWMX,2013-09-16 15:34:00,
2013-09-16 11:39:00,59.5,59.5,30.08,South,182,0.0,0.0,100,0.00,,,0.01,WUHU216DAVISWMX,2013-09-16 15:39:00,
2013-09-16 11:44:00,59.6,59.6,30.09,South,183,0.0,0.0,100,0.00,,,0.01,WUHU216DAVISWMX,2013-09-16 15:44:00,
2013-09-16 11:49:00,59.9,59.9,30.09,South,183,0.0,0.0,100,0.00,,,0.01,WUHU216DAVISWMX,2013-09-16 15:49:00,
2013-09-16 11:54:00,60.4,60.4,30.09,WNW,286,0.0,0.0,100,0.00,,,0.01,WUHU216DAVISWMX,2013-09-16 15:54:00,
2013-09-16 11:59:00,60.9,60.9,30.08,SSW,197,0.0,0.0,100,0.00,,,0.01,WUHU216DAVISWMX,2013-09-16 15:59:00,
2013-09-16 12:04:00,61.3,61.3,30.08,SSW,197,0.0,0.0,100,0.00,,,0.01,WUHU216DAVISWMX,2013-09-16 16:04:00,
2013-09-16 12:09:00,61.8,61.5,30.08,NW,308,0.0,0.0,99,0.00,,,0.01,WUHU216DAVISWMX,2013-09-16 16:09:00,
2013-09-16 12:14:00,62.3,62.0,30.08,SW,229,0.0,0.0,99,0.00,,,0.01,WUHU216DAVISWMX,2013-09-16 16:14:00,
2013-09-16 12:19:00,62.8,61.9,30.08,WNW,302,0.0,0.0,97,0.00,,,0.01,WUHU216DAVISWMX,2013-09-16 16:19:00,
2013-09-16 12:24:00,62.9,61.7,30.08,NW,319,0.0,1.0,96,0.00,,,0.01,WUHU216DAVISWMX,2013-09-16 16:24:00,
2013-09-16 12:29:00,63.2,61.7,30.07,NW,321,0.0,1.0,95,0.00,,,0.01,WUHU216DAVISWMX,2013-09-16 16:29:00,
2013-09-16 12:34:00,63.5,60.8,30.07,NW,319,0.0,2.0,91,0.01,,,0.02,WUHU216DAVISWMX,2013-09-16 16:34:00,
2013-09-16 12:39:00,63.9,60.9,30.08,NW,304,0.0,2.0,90,0.01,,,0.02,WUHU216DAVISWMX,2013-09-16 16:39:00,
2013-09-16 12:44:00,63.5,59.6,30.07,NW,314,0.0,4.0,87,0.01,,,0.02,WUHU216DAVISWMX,2013-09-16 16:44:00,
2013-09-16 12:49:00,63.3,59.7,30.07,NW,314,0.0,4.0,88,0.01,,,0.02,WUHU216DAVISWMX,2013-09-16 16:49:00,
2013-09-16 12:54:00,63.4,59.8,30.07,NW,317,0.0,0.0,88,0.01,,,0.02,WUHU216DAVISWMX,2013-09-16 16:54:00,
2013-09-16 12:59:00,63.5,59.6,30.07,NW,320,0.0,0.0,87,0.01,,,0.02,WUHU216DAVISWMX,2013-09-16 16:59:00,
2013-09-16 13:04:00,63.4,59.5,30.07,NW,322,0.0,0.0,87,0.01,,,0.02,WUHU216DAVISWMX,2013-09-16 17:04:00,
2013-09-16 13:09:00,63.5,59.6,30.07,WNW,291,0.0,0.0,87,0.01,,,0.02,WUHU216DAVISWMX,2013-09-16 17:09:00,
2013-09-16 13:14:00,63.6,59.7,30.07,WNW,291,0.0,0.0,87,0.01,,,0.02,WUHU216DAVISWMX,2013-09-16 17:14:00,
2013-09-16 13:19:00,63.8,59.9,30.07,WNW,291,0.0,0.0,87,0.01,,,0.02,WUHU216DAVISWMX,2013-09-16 17:19:00,
2013-09-16 13:24:00,63.7,59.4,30.07,WNW,291,0.0,0.0,86,0.01,,,0.02,WUHU216DAVISWMX,2013-09-16 17:24:00,
2013-09-16 13:29:00,63.6,59.7,30.07,NW,306,0.0,0.0,87,0.01,,,0.02,WUHU216DAVISWMX,2013-09-16 17:29:00,
2013-09-16 13:34:00,63.6,59.7,30.07,NW,316,0.0,0.0,87,0.00,,,0.02,WUHU216DAVISWMX,2013-09-16 17:34:00,
2013-09-16 13:40:00,63.9,60.0,30.07,NW,315,0.0,0.0,87,0.00,,,0.02,WUHU216DAVISWMX,2013-09-16 17:40:00,
2013-09-16 13:45:00,63.9,59.3,30.07,NNW,337,0.0,0.0,85,0.00,,,0.02,WUHU216DAVISWMX,2013-09-16 17:45:00,
2013-09-16 13:50:00,63.8,59.2,30.07,North,351,0.0,0.0,85,0.00,,,0.02,WUHU216DAVISWMX,2013-09-16 17:50:00,
2013-09-16 13:55:00,63.5,58.3,30.07,North,351,0.0,0.0,83,0.00,,,0.02,WUHU216DAVISWMX,2013-09-16 17:55:00,
2013-09-16 14:00:00,63.4,58.8,30.07,North,351,0.0,0.0,85,0.00,,,0.02,WUHU216DAVISWMX,2013-09-16 18:00:00,
2013-09-16 14:05:00,63.5,58.9,30.07,NNW,345,0.0,0.0,85,0.00,,,0.02,WUHU216DAVISWMX,2013-09-16 18:05:00,
2013-09-16 14:10:00,63.9,59.3,30.07,NW,322,0.0,0.0,85,0.00,,,0.02,WUHU216DAVISWMX,2013-09-16 18:10:00,
2013-09-16 14:15:00,63.9,59.0,30.07,NNW,332,0.0,2.0,84,0.00,,,0.02,WUHU216DAVISWMX,2013-09-16 18:15:00,
2013-09-16 14:20:00,63.7,58.5,30.07,NW,325,0.0,2.0,83,0.00,,,0.02,WUHU216DAVISWMX,2013-09-16 18:20:00,
2013-09-16 14:25:00,63.7,58.5,30.07,NW,325,0.0,0.0,83,0.00,,,0.02,WUHU216DAVISWMX,2013-09-16 18:25:00,
2013-09-16 14:30:00,63.9,58.7,30.08,NW,325,0.0,0.0,83,0.00,,,0.02,WUHU216DAVISWMX,2013-09-16 18:30:00,
2013-09-16 14:35:00,64.1,58.9,30.08,NW,325,0.0,0.0,83,0.00,,,0.02,WUHU216DAVISWMX,2013-09-16 18:35:00,
2013-09-16 14:40:00,64.2,59.0,30.07,NW,325,0.0,0.0,83,0.00,,,0.02,WUHU216DAVISWMX,2013-09-16 18:40:00,
2013-09-16 14:45:00,64.4,59.2,30.07,NW,325,0.0,0.0,83,0.00,,,0.02,WUHU216DAVISWMX,2013-09-16 18:45:00,
2013-09-16 14:50:00,64.6,59.4,30.07,NNW,345,0.0,0.0,83,0.00,,,0.02,WUHU216DAVISWMX,2013-09-16 18:50:00,
2013-09-16 14:55:00,64.5,58.9,30.07,North,7,0.0,0.0,82,0.00,,,0.02,WUHU216DAVISWMX,2013-09-16 18:55:00,
2013-09-16 15:00:00,64.3,58.4,30.07,NE,42,0.0,0.0,81,0.00,,,0.02,WUHU216DAVISWMX,2013-09-16 19:00:00,
2013-09-16 15:05:00,64.0,58.4,30.07,North,0,0.0,0.0,82,0.00,,,0.02,WUHU216DAVISWMX,2013-09-16 19:05:00,
2013-09-16 15:10:00,63.7,58.5,30.08,North,0,0.0,0.0,83,0.00,,,0.02,WUHU216DAVISWMX,2013-09-16 19:10:00,
2013-09-16 15:15:00,63.4,58.2,30.07,NE,45,0.0,0.0,83,0.00,,,0.02,WUHU216DAVISWMX,2013-09-16 19:15:00,
2013-09-16 15:20:00,63.0,57.8,30.08,NNW,342,0.0,0.0,83,0.00,,,0.02,WUHU216DAVISWMX,2013-09-16 19:20:00,
2013-09-16 15:25:00,62.7,57.5,30.08,NW,320,0.0,0.0,83,0.00,,,0.02,WUHU216DAVISWMX,2013-09-16 19:25:00,
2013-09-16 15:30:00,62.7,57.8,30.08,NW,320,0.0,0.0,84,0.00,,,0.02,WUHU216DAVISWMX,2013-09-16 19:30:00,
2013-09-16 15:35:00,62.8,57.9,30.08,WNW,295,0.0,0.0,84,0.00,,,0.02,WUHU216DAVISWMX,2013-09-16 19:35:00,
2013-09-16 15:40:00,62.9,58.0,30.08,WNW,295,0.0,0.0,84,0.00,,,0.02,WUHU216DAVISWMX,2013-09-16 19:40:00,
2013-09-16 15:45:00,62.8,57.6,30.07,NW,316,0.0,0.0,83,0.00,,,0.02,WUHU216DAVISWMX,2013-09-16 19:45:00,
2013-09-16 15:50:00,62.9,58.0,30.08,NW,316,0.0,0.0,84,0.00,,,0.02,WUHU216DAVISWMX,2013-09-16 19:50:00,
2013-09-16 15:55:00,63.2,58.3,30.08,NW,316,0.0,0.0,84,0.00,,,0.02,WUHU216DAVISWMX,2013-09-16 19:55:00,
2013-09-16 16:00:00,63.4,57.9,30.08,NW,320,0.0,3.0,82,0.00,,,0.02,WUHU216DAVISWMX,2013-09-16 20:00:00,
2013-09-16 16:05:00,63.4,57.5,30.08,North,0,0.0,3.0,81,0.00,,,0.02,WUHU216DAVISWMX,2013-09-16 20:05:00,
2013-09-16 16:10:00,63.1,57.2,30.08,North,0,0.0,0.0,81,0.00,,,0.02,WUHU216DAVISWMX,2013-09-16 20:10:00,
2013-09-16 16:15:00,63.0,57.5,30.08,North,0,0.0,0.0,82,0.00,,,0.02,WUHU216DAVISWMX,2013-09-16 20:15:00,
2013-09-16 16:20:00,63.0,57.8,30.08,North,0,0.0,0.0,83,0.00,,,0.02,WUHU216DAVISWMX,2013-09-16 20:20:00,
2013-09-16 16:25:00,63.0,57.8,30.08,North,0,0.0,0.0,83,0.00,,,0.02,WUHU216DAVISWMX,2013-09-16 20:25:00,
2013-09-16 16:30:00,63.2,58.3,30.08,North,0,0.0,0.0,84,0.00,,,0.02,WUHU216DAVISWMX,2013-09-16 20:30:00,
2013-09-16 16:35:00,63.4,58.2,30.08,NW,314,0.0,1.0,83,0.00,,,0.02,WUHU216DAVISWMX,2013-09-16 20:35:00,
2013-09-16 16:40:00,63.4,57.5,30.08,NNW,332,0.0,1.0,81,0.00,,,0.02,WUHU216DAVISWMX,2013-09-16 20:40:00,
2013-09-16 16:45:00,63.4,57.9,30.09,NNW,329,0.0,0.0,82,0.00,,,0.02,WUHU216DAVISWMX,2013-09-16 20:45:00,
2013-09-16 16:50:00,63.2,57.3,30.09,NNW,336,0.0,0.0,81,0.00,,,0.02,WUHU216DAVISWMX,2013-09-16 20:50:00,
2013-09-16 16:55:00,62.8,57.3,30.09,NNW,336,0.0,0.0,82,0.00,,,0.02,WUHU216DAVISWMX,2013-09-16 20:55:00,
2013-09-16 17:00:00,62.5,57.0,30.09,NNE,12,0.0,0.0,82,0.00,,,0.02,WUHU216DAVISWMX,2013-09-16 21:00:00,
2013-09-16 17:05:00,62.1,56.9,30.09,NNE,12,0.0,0.0,83,0.00,,,0.02,WUHU216DAVISWMX,2013-09-16 21:05:00,
2013-09-16 17:10:00,62.0,57.1,30.10,North,11,0.0,0.0,84,0.00,,,0.02,WUHU216DAVISWMX,2013-09-16 21:10:00,
2013-09-16 17:15:00,61.8,56.9,30.09,North,6,0.0,0.0,84,0.00,,,0.02,WUHU216DAVISWMX,2013-09-16 21:15:00,
2013-09-16 17:20:00,61.7,56.8,30.10,NNW,347,0.0,0.0,84,0.00,,,0.02,WUHU216DAVISWMX,2013-09-16 21:20:00,
2013-09-16 17:25:00,61.6,56.4,30.10,NNW,348,0.0,0.0,83,0.00,,,0.02,WUHU216DAVISWMX,2013-09-16 21:25:00,
2013-09-16 17:30:00,61.6,56.1,30.10,North,0,0.0,0.0,82,0.00,,,0.02,WUHU216DAVISWMX,2013-09-16 21:30:00,
2013-09-16 17:35:00,61.5,56.0,30.10,North,0,0.0,0.0,82,0.00,,,0.02,WUHU216DAVISWMX,2013-09-16 21:35:00,
2013-09-16 17:41:00,61.4,55.9,30.11,North,349,0.0,0.0,82,0.00,,,0.02,WUHU216DAVISWMX,2013-09-16 21:41:00,
2013-09-16 17:46:00,61.1,55.6,30.11,North,349,0.0,0.0,82,0.00,,,0.02,WUHU216DAVISWMX,2013-09-16 21:46:00,
2013-09-16 17:51:00,60.8,55.6,30.11,North,349,0.0,0.0,83,0.00,,,0.02,WUHU216DAVISWMX,2013-09-16 21:51:00,
2013-09-16 17:56:00,60.6,55.4,30.12,North,11,0.0,0.0,83,0.00,,,0.02,WUHU216DAVISWMX,2013-09-16 21:56:00,
2013-09-16 18:01:00,60.5,55.3,30.12,North,11,0.0,0.0,83,0.00,,,0.02,WUHU216DAVISWMX,2013-09-16 22:01:00,
2013-09-16 18:06:00,60.5,55.7,30.12,North,11,0.0,0.0,84,0.00,,,0.02,WUHU216DAVISWMX,2013-09-16 22:06:00,
2013-09-16 18:11:00,60.3,55.5,30.12,North,11,0.0,0.0,84,0.00,,,0.02,WUHU216DAVISWMX,2013-09-16 22:11:00,
2013-09-16 18:16:00,59.9,54.8,30.13,North,11,0.0,0.0,83,0.00,,,0.02,WUHU216DAVISWMX,2013-09-16 22:16:00,
2013-09-16 18:21:00,59.6,53.8,30.13,NNE,14,0.0,0.0,81,0.00,,,0.02,WUHU216DAVISWMX,2013-09-16 22:21:00,
2013-09-16 18:26:00,59.1,53.0,30.13,North,0,0.0,0.0,80,0.00,,,0.02,WUHU216DAVISWMX,2013-09-16 22:26:00,
2013-09-16 18:31:00,58.8,52.4,30.13,North,0,0.0,0.0,79,0.00,,,0.02,WUHU216DAVISWMX,2013-09-16 22:31:00,
2013-09-16 18:36:00,58.5,52.1,30.14,North,0,0.0,0.0,79,0.00,,,0.02,WUHU216DAVISWMX,2013-09-16 22:36:00,
2013-09-16 18:41:00,58.2,51.8,30.14,NNW,339,0.0,0.0,79,0.00,,,0.02,WUHU216DAVISWMX,2013-09-16 22:41:00,
2013-09-16 18:46:00,57.9,51.8,30.14,NNW,339,0.0,0.0,80,0.00,,,0.02,WUHU216DAVISWMX,2013-09-16 22:46:00,
2013-09-16 18:51:00,57.7,52.0,30.14,NNW,339,0.0,0.0,81,0.00,,,0.02,WUHU216DAVISWMX,2013-09-16 22:51:00,
2013-09-16 18:56:00,57.5,52.1,30.15,NNW,339,0.0,0.0,82,0.00,,,0.02,WUHU216DAVISWMX,2013-09-16 22:56:00,
2013-09-16 19:01:00,57.2,51.8,30.15,NNW,339,0.0,0.0,82,0.00,,,0.02,WUHU216DAVISWMX,2013-09-16 23:01:00,
2013-09-16 19:06:00,57.0,51.9,30.15,NNW,339,0.0,0.0,83,0.00,,,0.02,WUHU216DAVISWMX,2013-09-16 23:06:00,
2013-09-16 19:11:00,56.7,51.6,30.15,NNW,339,0.0,0.0,83,0.00,,,0.02,WUHU216DAVISWMX,2013-09-16 23:11:00,
2013-09-16 19:16:00,56.5,51.7,30.16,NNW,340,0.0,0.0,84,0.00,,,0.02,WUHU216DAVISWMX,2013-09-16 23:16:00,
2013-09-16 19:21:00,56.4,51.9,30.16,NNW,339,0.0,0.0,85,0.00,,,0.02,WUHU216DAVISWMX,2013-09-16 23:21:00,
2013-09-16 19:26:00,56.1,51.7,30.16,NNW,339,0.0,0.0,85,0.00,,,0.02,WUHU216DAVISWMX,2013-09-16 23:26:00,
2013-09-16 19:31:00,55.9,51.8,30.17,NNW,339,0.0,0.0,86,0.00,,,0.02,WUHU216DAVISWMX,2013-09-16 23:31:00,
2013-09-16 19:36:00,55.6,51.2,30.17,NNW,340,0.0,0.0,85,0.00,,,0.02,WUHU216DAVISWMX,2013-09-16 23:36:00,
2013-09-16 19:41:00,55.4,51.0,30.17,NNW,339,0.0,0.0,85,0.00,,,0.02,WUHU216DAVISWMX,2013-09-16 23:41:00,
2013-09-16 19:46:00,55.2,50.8,30.17,NNW,339,0.0,0.0,85,0.00,,,0.02,WUHU216DAVISWMX,2013-09-16 23:46:00,
2013-09-16 19:51:00,54.9,50.2,30.18,NNW,339,0.0,0.0,84,0.00,,,0.02,WUHU216DAVISWMX,2013-09-16 23:51:00,
2013-09-16 19:56:00,54.6,49.9,30.18,NW,317,0.0,4.0,84,0.00,,,0.02,WUHU216DAVISWMX,2013-09-16 23:56:00,
2013-09-16 20:01:00,54.5,49.8,30.18,NW,316,0.0,4.0,84,0.00,,,0.02,WUHU216DAVISWMX,2013-09-17 00:01:00,
2013-09-16 20:06:00,54.3,49.3,30.19,NW,316,0.0,0.0,83,0.00,,,0.02,WUHU216DAVISWMX,2013-09-17 00:06:00,
2013-09-16 20:11:00,53.9,48.2,30.19,NW,316,0.0,0.0,81,0.00,,,0.02,WUHU216DAVISWMX,2013-09-17 00:11:00,
2013-09-16 20:16:00,53.7,48.4,30.20,NW,316,0.0,0.0,82,0.00,,,0.02,WUHU216DAVISWMX,2013-09-17 00:16:00,
2013-09-16 20:21:00,53.4,48.1,30.20,NW,326,0.0,0.0,82,0.00,,,0.02,WUHU216DAVISWMX,2013-09-17 00:21:00,
2013-09-16 20:26:00,53.3,48.0,30.21,NNW,330,0.0,0.0,82,0.00,,,0.02,WUHU216DAVISWMX,2013-09-17 00:26:00,
2013-09-16 20:31:00,53.0,47.7,30.21,NNW,330,0.0,0.0,82,0.00,,,0.02,WUHU216DAVISWMX,2013-09-17 00:31:00,
2013-09-16 20:36:00,52.9,47.6,30.21,NW,324,0.0,0.0,82,0.00,,,0.02,WUHU216DAVISWMX,2013-09-17 00:36:00,
2013-09-16 20:41:00,52.7,47.1,30.22,NW,324,0.0,0.0,81,0.00,,,0.02,WUHU216DAVISWMX,2013-09-17 00:41:00,
2013-09-16 20:46:00,52.5,46.9,30.22,NW,324,0.0,0.0,81,0.00,,,0.02,WUHU216DAVISWMX,2013-09-17 00:46:00,
2013-09-16 20:51:00,52.2,46.6,30.22,NW,324,0.0,0.0,81,0.00,,,0.02,WUHU216DAVISWMX,2013-09-17 00:51:00,
2013-09-16 20:56:00,52.0,46.4,30.22,NW,324,0.0,0.0,81,0.00,,,0.02,WUHU216DAVISWMX,2013-09-17 00:56:00,
2013-09-16 21:02:00,51.8,45.9,30.23,NW,324,0.0,0.0,80,0.00,,,0.02,WUHU216DAVISWMX,2013-09-17 01:02:00,
2013-09-16 21:07:00,51.6,45.3,30.23,NW,324,0.0,0.0,79,0.00,,,0.02,WUHU216DAVISWMX,2013-09-17 01:07:00,
2013-09-16 21:12:00,51.4,45.2,30.23,NW,324,0.0,0.0,79,0.00,,,0.02,WUHU216DAVISWMX,2013-09-17 01:12:00,
2013-09-16 21:17:00,51.4,45.5,30.23,NW,324,0.0,0.0,80,0.00,,,0.02,WUHU216DAVISWMX,2013-09-17 01:17:00,
2013-09-16 21:22:00,51.3,45.1,30.23,NW,324,0.0,0.0,79,0.00,,,0.02,WUHU216DAVISWMX,2013-09-17 01:22:00,
2013-09-16 21:27:00,51.0,45.1,30.23,NW,324,0.0,0.0,80,0.00,,,0.02,WUHU216DAVISWMX,2013-09-17 01:27:00,
2013-09-16 21:32:00,51.0,45.7,30.24,NW,324,0.0,0.0,82,0.00,,,0.02,WUHU216DAVISWMX,2013-09-17 01:32:00,
2013-09-16 21:37:00,50.7,44.8,30.24,NW,324,0.0,0.0,80,0.00,,,0.02,WUHU216DAVISWMX,2013-09-17 01:37:00,
2013-09-16 21:42:00,50.5,44.3,30.24,NW,324,0.0,0.0,79,0.00,,,0.02,WUHU216DAVISWMX,2013-09-17 01:42:00,
2013-09-16 21:47:00,50.3,44.4,30.24,NNE,28,0.0,0.0,80,0.00,,,0.02,WUHU216DAVISWMX,2013-09-17 01:47:00,
2013-09-16 21:52:00,50.2,44.0,30.25,NNW,337,0.0,0.0,79,0.00,,,0.02,WUHU216DAVISWMX,2013-09-17 01:52:00,
2013-09-16 21:57:00,49.9,43.7,30.25,NNW,342,0.0,0.0,79,0.00,,,0.02,WUHU216DAVISWMX,2013-09-17 01:57:00,
2013-09-16 22:02:00,49.8,43.6,30.25,NNE,19,0.0,0.0,79,0.00,,,0.02,WUHU216DAVISWMX,2013-09-17 02:02:00,
2013-09-16 22:07:00,49.8,43.9,30.26,NNE,18,0.0,0.0,80,0.00,,,0.02,WUHU216DAVISWMX,2013-09-17 02:07:00,
2013-09-16 22:12:00,49.8,44.2,30.26,North,0,0.0,0.0,81,0.00,,,0.02,WUHU216DAVISWMX,2013-09-17 02:12:00,
2013-09-16 22:17:00,49.6,43.7,30.26,North,0,0.0,0.0,80,0.00,,,0.02,WUHU216DAVISWMX,2013-09-17 02:17:00,
2013-09-16 22:22:00,49.4,43.5,30.26,North,0,0.0,0.0,80,0.00,,,0.02,WUHU216DAVISWMX,2013-09-17 02:22:00,
2013-09-16 22:27:00,49.2,43.6,30.26,NW,320,0.0,2.0,81,0.00,,,0.02,WUHU216DAVISWMX,2013-09-17 02:27:00,
2013-09-16 22:32:00,49.3,44.1,30.27,NW,319,0.0,2.0,82,0.00,,,0.02,WUHU216DAVISWMX,2013-09-17 02:32:00,
2013-09-16 22:37:00,49.0,43.8,30.27,NW,323,0.0,0.0,82,0.00,,,0.02,WUHU216DAVISWMX,2013-09-17 02:37:00,
2013-09-16 22:42:00,48.8,43.3,30.27,NW,323,0.0,0.0,81,0.00,,,0.02,WUHU216DAVISWMX,2013-09-17 02:42:00,
2013-09-16 22:47:00,48.7,43.8,30.27,NW,323,0.0,0.0,83,0.00,,,0.02,WUHU216DAVISWMX,2013-09-17 02:47:00,
2013-09-16 22:52:00,48.7,43.5,30.27,NNW,331,0.0,0.0,82,0.00,,,0.02,WUHU216DAVISWMX,2013-09-17 02:52:00,
2013-09-16 22:57:00,48.5,43.0,30.28,NNW,331,0.0,0.0,81,0.00,,,0.02,WUHU216DAVISWMX,2013-09-17 02:57:00,
2013-09-16 23:02:00,48.5,43.6,30.28,NNW,331,0.0,0.0,83,0.00,,,0.02,WUHU216DAVISWMX,2013-09-17 03:02:00,
2013-09-16 23:07:00,48.4,43.8,30.28,NNW,331,0.0,0.0,84,0.00,,,0.02,WUHU216DAVISWMX,2013-09-17 03:07:00,
2013-09-16 23:12:00,48.4,43.8,30.28,NNW,331,0.0,0.0,84,0.00,,,0.02,WUHU216DAVISWMX,2013-09-17 03:12:00,
2013-09-16 23:17:00,48.1,43.8,30.28,NNW,330,0.0,0.0,85,0.00,,,0.02,WUHU216DAVISWMX,2013-09-17 03:17:00,
2013-09-16 23:22:00,48.0,43.7,30.29,NNW,331,0.0,0.0,85,0.00,,,0.02,WUHU216DAVISWMX,2013-09-17 03:22:00,
2013-09-16 23:27:00,47.7,43.4,30.29,NNW,331,0.0,0.0,85,0.00,,,0.02,WUHU216DAVISWMX,2013-09-17 03:27:00,
2013-09-16 23:32:00,47.6,43.3,30.29,NNW,330,0.0,0.0,85,0.00,,,0.02,WUHU216DAVISWMX,2013-09-17 03:32:00,
2013-09-16 23:37:00,47.5,43.2,30.29,NNW,331,0.0,0.0,85,0.00,,,0.02,WUHU216DAVISWMX,2013-09-17 03:37:00,
2013-09-16 23:42:00,47.4,43.4,30.29,NNW,330,0.0,0.0,86,0.00,,,0.02,WUHU216DAVISWMX,2013-09-17 03:42:00,
2013-09-16 23:47:00,47.3,43.3,30.29,NNW,331,0.0,0.0,86,0.00,,,0.02,WUHU216DAVISWMX,2013-09-17 03:47:00,
2013-09-16 23:52:00,47.0,43.0,30.29,NNW,330,0.0,0.0,86,0.00,,,0.02,WUHU216DAVISWMX,2013-09-17 03:52:00,
2013-09-16 23:57:00,46.9,42.9,30.29,NNW,331,0.0,0.0,86,0.00,,,0.02,WUHU216DAVISWMX,2013-09-17 03:57:00,